createdAt,value
2023-05-02T00:01:16.317Z,89.07
2023-05-02T00:05:18.230Z,89.67
2023-05-02T00:09:20.912Z,89.75
2023-05-02T00:13:22.641Z,91.83
2023-05-02T00:17:24.849Z,91.96
2023-05-02T00:21:28.737Z,90.87
2023-05-02T00:25:30.806Z,90.45
2023-05-02T00:29:32.704Z,90.50
2023-05-02T00:33:34.825Z,90.41
2023-05-02T00:37:36.867Z,89.77
2023-05-02T00:41:39.069Z,88.82
2023-05-02T00:45:48.546Z,88.48
2023-05-02T00:49:50.673Z,87.29
2023-05-02T00:53:52.999Z,88.05
2023-05-02T00:57:55.074Z,89.54
2023-05-02T01:02:32.229Z,89.55
2023-05-02T01:06:53.791Z,89.25
2023-05-02T01:11:28.982Z,88.90
2023-05-02T01:15:34.233Z,88.20
2023-05-02T01:19:39.979Z,88.64
2023-05-02T01:24:02.516Z,89.34
2023-05-02T01:28:26.284Z,89.93
2023-05-02T01:32:32.988Z,88.35
2023-05-02T01:36:37.664Z,88.27
2023-05-02T01:40:41.195Z,88.17
2023-05-02T01:44:45.344Z,87.10
2023-05-02T01:48:51.065Z,86.99
2023-05-02T01:52:54.860Z,85.36
2023-05-02T01:56:58.112Z,83.10
2023-05-02T02:01:01.076Z,80.38
2023-05-02T02:05:05.967Z,79.60
2023-05-02T02:09:08.245Z,80.39
2023-05-02T02:13:35.321Z,80.47
2023-05-02T02:17:45.820Z,80.16
2023-05-02T02:21:49.776Z,81.71
2023-05-02T02:25:52.995Z,83.31
2023-05-02T02:29:54.697Z,84.91
2023-05-02T02:33:56.825Z,86.58
2023-05-02T02:38:07.643Z,88.38
2023-05-02T02:42:18.335Z,90.17
2023-05-02T02:47:01.052Z,92.75
2023-05-02T02:51:37.895Z,95.27
2023-05-02T02:55:47.740Z,96.42
2023-05-02T02:59:59.483Z,97.89
2023-05-02T03:04:06.426Z,99.71
2023-05-02T03:08:08.453Z,99.92
2023-05-02T03:12:10.727Z,100.00
2023-05-02T03:16:34.120Z,100.00
2023-05-02T03:20:38.249Z,100.00
2023-05-02T03:24:40.821Z,100.00
2023-05-02T03:28:46.139Z,100.00
2023-05-02T03:32:49.347Z,100.00
2023-05-02T03:36:51.413Z,100.00
2023-05-02T03:40:57.800Z,100.00
2023-05-02T03:44:59.938Z,100.00
2023-05-02T03:49:01.967Z,100.00
2023-05-02T03:53:03.933Z,100.00
2023-05-02T03:57:06.410Z,100.00
2023-05-02T04:01:15.443Z,100.00
2023-05-02T04:05:20.501Z,100.00
2023-05-02T04:09:25.090Z,100.00
2023-05-02T04:13:28.826Z,100.00
2023-05-02T04:17:31.023Z,100.00
2023-05-02T04:21:36.832Z,100.00
2023-05-02T04:25:38.998Z,100.00
2023-05-02T04:29:41.021Z,100.00
2023-05-02T04:33:42.858Z,100.00
2023-05-02T04:37:44.839Z,100.00
2023-05-02T04:41:46.718Z,100.00
2023-05-02T04:45:48.773Z,100.00
2023-05-02T04:49:50.798Z,100.00
2023-05-02T04:53:52.780Z,100.00
2023-05-02T04:57:55.113Z,100.00
2023-05-02T05:01:57.238Z,100.00
2023-05-02T05:05:59.495Z,100.00
2023-05-02T05:10:02.297Z,100.00
2023-05-02T05:14:04.525Z,100.00
2023-05-02T05:18:06.633Z,100.00
2023-05-02T05:22:08.501Z,100.00
2023-05-02T05:26:18.006Z,100.00
2023-05-02T05:30:19.994Z,100.00
2023-05-02T05:34:22.085Z,100.00
2023-05-02T05:38:24.342Z,100.00
2023-05-02T05:42:26.348Z,100.00
2023-05-02T05:46:28.252Z,100.00
2023-05-02T05:50:30.081Z,100.00
2023-05-02T05:54:32.061Z,100.00
2023-05-02T05:58:33.896Z,99.99
2023-05-02T06:02:35.939Z,99.09
2023-05-02T06:06:38.308Z,97.86
2023-05-02T06:10:41.262Z,93.93
2023-05-02T06:14:45.710Z,89.78
2023-05-02T06:18:50.875Z,90.60
2023-05-02T06:22:52.769Z,89.51
2023-05-02T06:26:54.550Z,88.87
2023-05-02T06:31:02.786Z,88.17
2023-05-02T06:35:05.466Z,88.32
2023-05-02T06:39:08.475Z,86.89
2023-05-02T06:43:12.080Z,87.84
2023-05-02T06:47:14.098Z,85.58
2023-05-02T06:51:18.870Z,86.21
2023-05-02T06:55:21.217Z,83.76
2023-05-02T06:59:23.687Z,81.73
2023-05-02T07:03:26.932Z,81.37
2023-05-02T07:07:29.127Z,80.18
2023-05-02T07:11:32.158Z,81.78
2023-05-02T07:15:35.471Z,82.27
2023-05-02T07:19:37.332Z,80.47
2023-05-02T07:23:40.018Z,80.76
2023-05-02T07:27:42.704Z,81.28
2023-05-02T07:31:45.716Z,80.86
2023-05-02T07:35:49.563Z,79.23
2023-05-02T07:39:52.573Z,78.27
2023-05-02T07:43:59.212Z,80.95
2023-05-02T07:48:03.704Z,80.60
2023-05-02T07:52:07.026Z,78.51
2023-05-02T07:56:09.534Z,79.85
2023-05-02T08:00:13.157Z,80.04
2023-05-02T08:04:15.733Z,79.35
2023-05-02T08:08:18.167Z,80.30
2023-05-02T08:12:20.486Z,79.02
2023-05-02T08:16:22.427Z,82.07
2023-05-02T08:20:24.474Z,75.19
2023-05-02T08:24:26.857Z,74.05
2023-05-02T08:28:30.038Z,75.55
2023-05-02T08:32:32.533Z,77.28
2023-05-02T08:36:34.704Z,78.39
2023-05-02T08:40:41.459Z,78.11
2023-05-02T08:44:44.607Z,74.99
2023-05-02T08:48:49.483Z,74.53
2023-05-02T08:52:56.684Z,72.41
2023-05-02T08:56:59.241Z,73.50
2023-05-02T09:01:09.044Z,69.26
2023-05-02T09:05:12.388Z,70.36
2023-05-02T09:09:14.233Z,72.01
2023-05-02T09:13:30.508Z,69.78
2023-05-02T09:17:44.857Z,71.66
2023-05-02T09:21:46.883Z,71.08
2023-05-02T09:25:48.918Z,70.11
2023-05-02T09:30:21.402Z,69.97
2023-05-02T09:34:23.942Z,69.66
2023-05-02T09:38:25.891Z,69.11
2023-05-02T09:42:32.781Z,69.89
2023-05-02T09:46:43.041Z,68.60
2023-05-02T09:50:45.176Z,68.90
2023-05-02T09:54:50.068Z,66.68
2023-05-02T09:59:11.335Z,67.46
2023-05-02T10:03:17.178Z,67.33
2023-05-02T10:07:19.019Z,69.11
2023-05-02T10:11:21.307Z,70.61
2023-05-02T10:15:26.947Z,72.05
2023-05-02T10:20:00.274Z,70.41
2023-05-02T10:24:05.443Z,68.84
2023-05-02T10:28:09.322Z,70.37
2023-05-02T10:32:12.166Z,70.20
2023-05-02T10:36:14.911Z,69.94
2023-05-02T10:40:18.369Z,67.49
2023-05-02T10:44:37.170Z,68.35
2023-05-02T10:48:39.362Z,67.15
2023-05-02T10:52:42.130Z,65.96
2023-05-02T10:56:58.828Z,68.96
2023-05-02T11:01:28.019Z,66.85
2023-05-02T11:05:30.235Z,66.18
2023-05-02T11:09:33.188Z,67.24
2023-05-02T11:13:49.123Z,65.34
2023-05-02T11:22:59.498Z,62.06
2023-05-02T11:28:01.112Z,62.35
2023-05-02T11:32:10.060Z,58.26
2023-05-02T11:36:29.515Z,57.91
2023-05-02T11:40:45.381Z,59.50
2023-05-02T11:44:59.117Z,59.43
2023-05-02T11:49:27.388Z,58.78
2023-05-02T11:53:32.396Z,57.72
2023-05-02T11:57:37.743Z,57.08
2023-05-02T12:01:50.356Z,57.20
2023-05-02T12:05:57.354Z,58.97
2023-05-02T12:10:25.395Z,57.72
2023-05-02T12:14:40.956Z,57.93
2023-05-02T12:19:16.173Z,58.85
2023-05-02T12:23:30.639Z,60.72
2023-05-02T12:27:38.799Z,61.45
2023-05-02T12:31:52.087Z,58.14
2023-05-02T12:36:11.264Z,58.07
2023-05-02T12:40:20.199Z,59.76
2023-05-02T12:44:46.221Z,59.06
2023-05-02T12:53:40.219Z,58.50
2023-05-02T12:57:42.606Z,58.35
2023-05-02T13:01:44.369Z,58.01
2023-05-02T13:05:46.186Z,58.24
2023-05-02T13:09:48.068Z,60.98
2023-05-02T13:13:49.917Z,58.49
2023-05-02T13:17:52.356Z,60.62
2023-05-02T13:21:54.259Z,57.07
2023-05-02T13:25:55.998Z,59.33
2023-05-02T13:29:57.617Z,60.59
2023-05-02T13:33:59.395Z,57.15
2023-05-02T13:38:00.943Z,58.36
2023-05-02T13:42:05.895Z,60.50
2023-05-02T13:46:08.037Z,58.72
2023-05-02T13:50:10.047Z,58.18
2023-05-02T13:54:11.691Z,61.44
2023-05-02T13:58:14.068Z,62.33
2023-05-02T14:02:16.531Z,59.26
2023-05-02T14:06:18.284Z,60.66
2023-05-02T14:10:19.902Z,59.03
2023-05-02T14:14:21.475Z,59.97
2023-05-02T14:18:23.233Z,61.32
2023-05-02T14:22:24.823Z,60.36
2023-05-02T14:26:26.451Z,58.30
2023-05-02T14:30:28.581Z,58.89
2023-05-02T14:34:30.340Z,63.02
2023-05-02T14:38:31.884Z,62.27
2023-05-02T14:42:33.450Z,62.53
2023-05-02T14:46:35.128Z,61.84
2023-05-02T14:50:38.970Z,62.06
2023-05-02T14:54:40.439Z,60.91
2023-05-02T14:58:42.508Z,64.19
2023-05-02T15:02:44.466Z,63.23
2023-05-02T15:06:47.590Z,64.11
2023-05-02T15:10:49.790Z,66.12
2023-05-02T15:14:52.904Z,65.45
2023-05-02T15:18:55.296Z,66.12
2023-05-02T15:23:02.587Z,66.80
2023-05-02T15:27:04.438Z,67.10
2023-05-02T15:31:06.256Z,66.47
2023-05-02T15:35:08.696Z,67.69
2023-05-02T15:39:10.520Z,68.44
2023-05-02T15:43:12.324Z,67.05
2023-05-02T15:47:14.216Z,67.33
2023-05-02T15:51:17.601Z,67.86
2023-05-02T15:55:19.896Z,68.26
2023-05-02T15:59:21.946Z,68.52
2023-05-02T16:03:24.165Z,68.69
2023-05-02T16:07:26.180Z,68.54
2023-05-02T16:11:28.110Z,69.49
2023-05-02T16:15:29.923Z,70.48
2023-05-02T16:19:33.155Z,70.46
2023-05-02T16:23:34.818Z,70.60
2023-05-02T16:27:36.745Z,70.56
2023-05-02T16:31:38.709Z,70.39
2023-05-02T16:35:40.738Z,69.45
2023-05-02T16:39:42.966Z,68.33
2023-05-02T16:43:45.014Z,69.28
2023-05-02T16:47:46.931Z,69.85
2023-05-02T16:51:50.899Z,70.36
2023-05-02T16:55:53.578Z,70.64
2023-05-02T16:59:55.961Z,69.85
2023-05-02T17:03:57.876Z,70.64
2023-05-02T17:07:59.705Z,71.08
2023-05-02T17:12:02.332Z,71.67
2023-05-02T17:16:04.985Z,72.63
2023-05-02T17:20:07.300Z,73.98
2023-05-02T17:24:09.052Z,75.06
2023-05-02T17:28:10.958Z,74.75
2023-05-02T17:32:15.172Z,74.72
2023-05-02T17:36:16.997Z,74.35
2023-05-02T17:40:18.971Z,74.62
2023-05-02T17:44:21.303Z,75.19
2023-05-02T17:48:23.787Z,73.97
2023-05-02T17:52:25.664Z,73.64
2023-05-02T17:56:27.954Z,75.02
2023-05-02T18:00:29.877Z,76.59
2023-05-02T18:04:31.685Z,75.97
2023-05-02T18:08:33.447Z,75.82
2023-05-02T18:12:35.387Z,73.97
2023-05-02T18:16:37.264Z,74.60
2023-05-02T18:20:40.032Z,74.91
2023-05-02T18:24:42.079Z,76.15
2023-05-02T18:28:46.105Z,76.91
2023-05-02T18:32:47.855Z,77.35
2023-05-02T18:36:50.356Z,78.71
2023-05-02T18:40:52.570Z,84.29
2023-05-02T18:44:54.577Z,88.12
2023-05-02T18:48:56.521Z,91.13
2023-05-02T18:52:58.214Z,92.86
2023-05-02T18:57:01.503Z,92.36
2023-05-02T19:01:14.738Z,93.38
2023-05-02T19:05:16.892Z,93.86
2023-05-02T19:09:19.181Z,93.46
2023-05-02T19:13:21.773Z,93.31
2023-05-02T19:17:26.328Z,94.24
2023-05-02T19:21:27.922Z,94.56
2023-05-02T19:25:29.490Z,94.67
2023-05-02T19:29:31.272Z,94.42
2023-05-02T19:33:32.921Z,94.36
2023-05-02T19:37:34.800Z,95.84
2023-05-02T19:41:36.506Z,97.16
2023-05-02T19:45:38.398Z,97.55
2023-05-02T19:49:43.306Z,97.92
2023-05-02T19:53:45.008Z,97.88
2023-05-02T19:57:47.950Z,97.73
2023-05-02T20:01:49.748Z,99.74
2023-05-02T20:05:52.134Z,99.95
2023-05-02T20:09:53.968Z,99.67
2023-05-02T20:13:55.681Z,99.69
2023-05-02T20:17:59.070Z,100.00
2023-05-02T20:22:00.884Z,100.00
2023-05-02T20:26:03.967Z,100.00
2023-05-02T20:30:08.060Z,100.00
2023-05-02T20:34:09.952Z,100.00
2023-05-02T20:38:11.883Z,100.00
2023-05-02T20:42:17.247Z,100.00
2023-05-02T20:46:19.484Z,99.75
2023-05-02T20:50:21.573Z,99.16
2023-05-02T20:54:27.099Z,99.61
2023-05-02T20:58:29.229Z,99.41
2023-05-02T21:02:31.180Z,98.85
2023-05-02T21:06:33.688Z,97.78
2023-05-02T21:10:36.765Z,97.66
2023-05-02T21:14:38.783Z,96.89
2023-05-02T21:18:41.287Z,96.29
2023-05-02T21:22:43.054Z,95.90
2023-05-02T21:26:45.292Z,95.74
2023-05-02T21:30:47.450Z,94.98
2023-05-02T21:34:49.398Z,93.58
2023-05-02T21:38:51.285Z,91.79
2023-05-02T21:42:53.155Z,91.78
2023-05-02T21:46:55.487Z,90.08
2023-05-02T21:50:57.404Z,88.47
2023-05-02T21:54:59.337Z,86.53
2023-05-02T21:59:01.171Z,84.19
2023-05-02T22:03:11.449Z,83.98
2023-05-02T22:07:17.369Z,84.80
2023-05-02T22:11:26.355Z,85.25
2023-05-02T22:15:29.243Z,85.53
2023-05-02T22:19:31.808Z,85.69
2023-05-02T22:23:33.798Z,85.83
2023-05-02T22:27:35.761Z,85.19
2023-05-02T22:31:38.085Z,85.10
2023-05-02T22:35:40.157Z,84.52
2023-05-02T22:39:42.879Z,85.05
2023-05-02T22:43:47.983Z,84.74
2023-05-02T22:47:50.883Z,85.42
2023-05-02T22:51:59.313Z,86.46
2023-05-02T22:56:03.907Z,87.58
2023-05-02T23:00:09.037Z,87.03
2023-05-02T23:04:11.447Z,83.24
2023-05-02T23:08:13.665Z,81.29
2023-05-02T23:12:16.026Z,81.34
2023-05-02T23:16:18.607Z,82.01
2023-05-02T23:20:22.534Z,82.79
2023-05-02T23:24:24.472Z,82.63
2023-05-02T23:28:30.232Z,81.75
2023-05-02T23:32:34.307Z,80.98
2023-05-02T23:36:37.027Z,82.08
2023-05-02T23:40:39.100Z,83.15
2023-05-02T23:44:41.141Z,82.74
2023-05-02T23:48:43.214Z,83.34
2023-05-02T23:52:45.287Z,83.85
2023-05-02T23:56:47.365Z,83.95
